sensor_id;sensor_type;location;lat;lon;timestamp;temperature;humidity
6118;DHT22;3089;48.202;11.510;2023-10-09T00:00:15;15.10;99.90
6118;DHT22;3089;48.202;11.510;2023-10-09T00:03:00;15.10;99.90
6118;DHT22;3089;48.202;11.510;2023-10-09T00:05:32;15.10;99.90
6118;DHT22;3089;48.202;11.510;2023-10-09T00:08:13;15.10;99.90
6118;DHT22;3089;48.202;11.510;2023-10-09T00:10:46;15.10;99.90
6118;DHT22;3089;48.202;11.510;2023-10-09T00:13:20;15.10;99.90
6118;DHT22;3089;48.202;11.510;2023-10-09T00:15:55;15.10;99.90
6118;DHT22;3089;48.202;11.510;2023-10-09T00:18:28;15.10;99.90
6118;DHT22;3089;48.202;11.510;2023-10-09T00:20:58;15.10;99.90
6118;DHT22;3089;48.202;11.510;2023-10-09T00:23:38;15.10;99.90
6118;DHT22;3089;48.202;11.510;2023-10-09T00:26:06;15.10;99.90
6118;DHT22;3089;48.202;11.510;2023-10-09T00:28:38;15.10;99.90
6118;DHT22;3089;48.202;11.510;2023-10-09T00:31:11;15.10;99.90
6118;DHT22;3089;48.202;11.510;2023-10-09T00:33:43;15.00;99.90
6118;DHT22;3089;48.202;11.510;2023-10-09T00:36:13;15.00;99.90
6118;DHT22;3089;48.202;11.510;2023-10-09T00:38:46;14.90;99.90
6118;DHT22;3089;48.202;11.510;2023-10-09T00:41:18;14.90;99.90
6118;DHT22;3089;48.202;11.510;2023-10-09T00:43:52;14.90;99.90
6118;DHT22;3089;48.202;11.510;2023-10-09T00:46:21;14.90;99.90
6118;DHT22;3089;48.202;11.510;2023-10-09T00:48:57;14.90;99.90
6118;DHT22;3089;48.202;11.510;2023-10-09T00:51:31;14.90;99.90
6118;DHT22;3089;48.202;11.510;2023-10-09T00:54:05;14.90;99.90
6118;DHT22;3089;48.202;11.510;2023-10-09T00:56:35;14.80;99.90
6118;DHT22;3089;48.202;11.510;2023-10-09T00:59:15;14.80;99.90
6118;DHT22;3089;48.202;11.510;2023-10-09T01:01:47;14.80;99.90
6118;DHT22;3089;48.202;11.510;2023-10-09T01:04:24;14.80;99.90
6118;DHT22;3089;48.202;11.510;2023-10-09T01:06:57;14.80;99.90
6118;DHT22;3089;48.202;11.510;2023-10-09T01:09:42;14.80;99.90
6118;DHT22;3089;48.202;11.510;2023-10-09T01:12:13;14.70;99.90
6118;DHT22;3089;48.202;11.510;2023-10-09T01:14:45;14.70;99.90
6118;DHT22;3089;48.202;11.510;2023-10-09T01:17:19;14.70;99.90
6118;DHT22;3089;48.202;11.510;2023-10-09T01:20:03;14.70;99.90
6118;DHT22;3089;48.202;11.510;2023-10-09T01:22:33;14.70;99.90
6118;DHT22;3089;48.202;11.510;2023-10-09T01:25:04;14.70;99.90
6118;DHT22;3089;48.202;11.510;2023-10-09T01:27:33;14.70;99.90
6118;DHT22;3089;48.202;11.510;2023-10-09T01:30:02;14.60;99.90
6118;DHT22;3089;48.202;11.510;2023-10-09T01:32:32;14.60;99.90
6118;DHT22;3089;48.202;11.510;2023-10-09T01:35:01;14.60;99.90
6118;DHT22;3089;48.202;11.510;2023-10-09T01:37:35;14.60;99.90
6118;DHT22;3089;48.202;11.510;2023-10-09T01:40:06;14.60;99.90
6118;DHT22;3089;48.202;11.510;2023-10-09T01:42:52;14.60;99.90
6118;DHT22;3089;48.202;11.510;2023-10-09T01:45:21;14.60;99.90
6118;DHT22;3089;48.202;11.510;2023-10-09T01:47:55;14.60;99.90
6118;DHT22;3089;48.202;11.510;2023-10-09T01:50:24;14.50;99.90
6118;DHT22;3089;48.202;11.510;2023-10-09T01:52:58;14.50;99.90
6118;DHT22;3089;48.202;11.510;2023-10-09T01:55:29;14.50;99.90
6118;DHT22;3089;48.202;11.510;2023-10-09T01:58:01;14.50;99.90
6118;DHT22;3089;48.202;11.510;2023-10-09T02:00:33;14.50;99.90
6118;DHT22;3089;48.202;11.510;2023-10-09T02:03:11;14.50;99.90
6118;DHT22;3089;48.202;11.510;2023-10-09T02:05:51;14.40;99.90
6118;DHT22;3089;48.202;11.510;2023-10-09T02:08:20;14.40;99.90
6118;DHT22;3089;48.202;11.510;2023-10-09T02:10:55;14.40;99.90
6118;DHT22;3089;48.202;11.510;2023-10-09T02:13:23;14.40;99.90
6118;DHT22;3089;48.202;11.510;2023-10-09T02:15:56;14.40;99.90
6118;DHT22;3089;48.202;11.510;2023-10-09T02:18:40;14.30;99.90
6118;DHT22;3089;48.202;11.510;2023-10-09T02:21:20;14.30;99.90
6118;DHT22;3089;48.202;11.510;2023-10-09T02:24:02;14.30;99.90
6118;DHT22;3089;48.202;11.510;2023-10-09T02:26:34;14.30;99.90
6118;DHT22;3089;48.202;11.510;2023-10-09T02:29:29;14.40;99.90
6118;DHT22;3089;48.202;11.510;2023-10-09T02:32:02;14.30;99.90
6118;DHT22;3089;48.202;11.510;2023-10-09T02:34:40;14.30;99.90
6118;DHT22;3089;48.202;11.510;2023-10-09T02:37:13;14.30;99.90
6118;DHT22;3089;48.202;11.510;2023-10-09T02:39:41;14.30;99.90
6118;DHT22;3089;48.202;11.510;2023-10-09T02:42:15;14.20;99.90
6118;DHT22;3089;48.202;11.510;2023-10-09T02:44:54;14.20;99.90
6118;DHT22;3089;48.202;11.510;2023-10-09T02:47:22;14.20;99.90
6118;DHT22;3089;48.202;11.510;2023-10-09T02:49:56;14.20;99.90
6118;DHT22;3089;48.202;11.510;2023-10-09T02:52:33;14.20;99.90
6118;DHT22;3089;48.202;11.510;2023-10-09T02:55:08;14.20;99.90
6118;DHT22;3089;48.202;11.510;2023-10-09T02:57:42;14.10;99.90
6118;DHT22;3089;48.202;11.510;2023-10-09T03:00:12;14.10;99.90
6118;DHT22;3089;48.202;11.510;2023-10-09T03:02:46;14.10;99.90
6118;DHT22;3089;48.202;11.510;2023-10-09T03:05:17;14.10;99.90
6118;DHT22;3089;48.202;11.510;2023-10-09T03:07:47;14.10;99.90
6118;DHT22;3089;48.202;11.510;2023-10-09T03:10:16;14.00;99.90
6118;DHT22;3089;48.202;11.510;2023-10-09T03:12:46;14.00;99.90
6118;DHT22;3089;48.202;11.510;2023-10-09T03:15:18;14.00;99.90
6118;DHT22;3089;48.202;11.510;2023-10-09T03:17:47;14.00;99.90
6118;DHT22;3089;48.202;11.510;2023-10-09T03:20:16;14.00;99.90
6118;DHT22;3089;48.202;11.510;2023-10-09T03:22:45;13.90;99.90
6118;DHT22;3089;48.202;11.510;2023-10-09T03:25:15;13.90;99.90
6118;DHT22;3089;48.202;11.510;2023-10-09T03:27:46;13.90;99.90
6118;DHT22;3089;48.202;11.510;2023-10-09T03:30:15;13.90;99.90
6118;DHT22;3089;48.202;11.510;2023-10-09T03:32:51;13.90;99.90
6118;DHT22;3089;48.202;11.510;2023-10-09T03:35:20;13.90;99.90
6118;DHT22;3089;48.202;11.510;2023-10-09T03:37:55;13.90;99.90
6118;DHT22;3089;48.202;11.510;2023-10-09T03:40:27;13.80;99.90
6118;DHT22;3089;48.202;11.510;2023-10-09T03:42:56;13.80;99.90
6118;DHT22;3089;48.202;11.510;2023-10-09T03:45:25;13.80;99.90
6118;DHT22;3089;48.202;11.510;2023-10-09T03:47:55;13.80;99.90
6118;DHT22;3089;48.202;11.510;2023-10-09T03:50:29;13.70;99.90
6118;DHT22;3089;48.202;11.510;2023-10-09T03:53:05;13.80;99.90
6118;DHT22;3089;48.202;11.510;2023-10-09T03:55:35;13.80;99.90
6118;DHT22;3089;48.202;11.510;2023-10-09T03:58:07;13.80;99.90
6118;DHT22;3089;48.202;11.510;2023-10-09T04:00:39;13.70;99.90
6118;DHT22;3089;48.202;11.510;2023-10-09T04:03:12;13.70;99.90
6118;DHT22;3089;48.202;11.510;2023-10-09T04:05:43;13.70;99.90
6118;DHT22;3089;48.202;11.510;2023-10-09T04:08:19;13.70;99.90
6118;DHT22;3089;48.202;11.510;2023-10-09T04:10:55;13.70;99.90
6118;DHT22;3089;48.202;11.510;2023-10-09T04:13:31;13.70;99.90
6118;DHT22;3089;48.202;11.510;2023-10-09T04:16:03;13.70;99.90
6118;DHT22;3089;48.202;11.510;2023-10-09T04:18:39;13.70;99.90
6118;DHT22;3089;48.202;11.510;2023-10-09T04:21:11;13.70;99.90
6118;DHT22;3089;48.202;11.510;2023-10-09T04:24:02;13.70;99.90
6118;DHT22;3089;48.202;11.510;2023-10-09T04:26:48;13.60;99.90
6118;DHT22;3089;48.202;11.510;2023-10-09T04:29:24;13.60;99.90
6118;DHT22;3089;48.202;11.510;2023-10-09T04:31:55;13.60;99.90
6118;DHT22;3089;48.202;11.510;2023-10-09T04:34:27;13.60;99.90
6118;DHT22;3089;48.202;11.510;2023-10-09T04:37:02;13.60;99.90
6118;DHT22;3089;48.202;11.510;2023-10-09T04:39:51;13.60;99.90
6118;DHT22;3089;48.202;11.510;2023-10-09T04:42:28;13.60;99.90
6118;DHT22;3089;48.202;11.510;2023-10-09T04:45:07;13.60;99.90
6118;DHT22;3089;48.202;11.510;2023-10-09T04:48:07;13.60;99.90
6118;DHT22;3089;48.202;11.510;2023-10-09T04:50:37;13.70;99.90
6118;DHT22;3089;48.202;11.510;2023-10-09T04:53:32;13.60;99.90
6118;DHT22;3089;48.202;11.510;2023-10-09T04:56:10;13.60;99.90
6118;DHT22;3089;48.202;11.510;2023-10-09T04:58:42;13.60;99.90
6118;DHT22;3089;48.202;11.510;2023-10-09T05:01:14;13.60;99.90
6118;DHT22;3089;48.202;11.510;2023-10-09T05:04:04;13.60;99.90
6118;DHT22;3089;48.202;11.510;2023-10-09T05:06:52;13.50;99.90
6118;DHT22;3089;48.202;11.510;2023-10-09T05:09:23;13.50;99.90
6118;DHT22;3089;48.202;11.510;2023-10-09T05:11:51;13.50;99.90
6118;DHT22;3089;48.202;11.510;2023-10-09T05:14:36;13.40;99.90
6118;DHT22;3089;48.202;11.510;2023-10-09T05:17:08;13.40;99.90
6118;DHT22;3089;48.202;11.510;2023-10-09T05:19:43;13.40;99.90
6118;DHT22;3089;48.202;11.510;2023-10-09T05:22:22;13.40;99.90
6118;DHT22;3089;48.202;11.510;2023-10-09T05:25:06;13.40;99.90
6118;DHT22;3089;48.202;11.510;2023-10-09T05:27:43;13.40;99.90
6118;DHT22;3089;48.202;11.510;2023-10-09T05:30:17;13.40;99.90
6118;DHT22;3089;48.202;11.510;2023-10-09T05:33:04;13.50;99.90
6118;DHT22;3089;48.202;11.510;2023-10-09T05:35:46;13.50;99.90
6118;DHT22;3089;48.202;11.510;2023-10-09T05:38:33;13.50;99.90
6118;DHT22;3089;48.202;11.510;2023-10-09T05:41:13;13.40;99.90
6118;DHT22;3089;48.202;11.510;2023-10-09T05:43:58;13.50;99.90
6118;DHT22;3089;48.202;11.510;2023-10-09T05:46:43;13.40;99.90
6118;DHT22;3089;48.202;11.510;2023-10-09T05:49:37;13.50;99.90
6118;DHT22;3089;48.202;11.510;2023-10-09T05:52:13;13.50;99.90
6118;DHT22;3089;48.202;11.510;2023-10-09T05:54:59;13.60;99.90
6118;DHT22;3089;48.202;11.510;2023-10-09T05:57:46;13.50;99.90
6118;DHT22;3089;48.202;11.510;2023-10-09T06:00:32;13.50;99.90
6118;DHT22;3089;48.202;11.510;2023-10-09T06:03:17;13.50;99.90
6118;DHT22;3089;48.202;11.510;2023-10-09T06:05:54;13.50;99.90
6118;DHT22;3089;48.202;11.510;2023-10-09T06:08:31;13.60;99.90
6118;DHT22;3089;48.202;11.510;2023-10-09T06:11:35;13.60;99.90
6118;DHT22;3089;48.202;11.510;2023-10-09T06:14:05;13.70;99.90
6118;DHT22;3089;48.202;11.510;2023-10-09T06:16:42;13.80;99.90
6118;DHT22;3089;48.202;11.510;2023-10-09T06:19:11;13.90;99.90
6118;DHT22;3089;48.202;11.510;2023-10-09T06:21:55;13.90;99.90
6118;DHT22;3089;48.202;11.510;2023-10-09T06:24:43;13.90;99.90
6118;DHT22;3089;48.202;11.510;2023-10-09T06:27:22;13.90;99.90
6118;DHT22;3089;48.202;11.510;2023-10-09T06:30:12;13.90;99.90
6118;DHT22;3089;48.202;11.510;2023-10-09T06:32:51;13.80;99.90
6118;DHT22;3089;48.202;11.510;2023-10-09T06:35:25;13.80;99.90
6118;DHT22;3089;48.202;11.510;2023-10-09T06:37:59;13.90;99.90
6118;DHT22;3089;48.202;11.510;2023-10-09T06:40:53;14.00;99.90
6118;DHT22;3089;48.202;11.510;2023-10-09T06:43:44;14.00;99.90
6118;DHT22;3089;48.202;11.510;2023-10-09T06:46:15;14.10;99.90
6118;DHT22;3089;48.202;11.510;2023-10-09T06:49:10;14.10;99.90
6118;DHT22;3089;48.202;11.510;2023-10-09T06:51:59;14.10;99.90
6118;DHT22;3089;48.202;11.510;2023-10-09T06:54:43;14.10;99.90
6118;DHT22;3089;48.202;11.510;2023-10-09T06:57:18;14.10;99.90
6118;DHT22;3089;48.202;11.510;2023-10-09T07:00:00;14.10;99.90
6118;DHT22;3089;48.202;11.510;2023-10-09T07:02:57;14.20;99.90
6118;DHT22;3089;48.202;11.510;2023-10-09T07:05:38;14.20;99.90
6118;DHT22;3089;48.202;11.510;2023-10-09T07:08:27;14.30;99.90
6118;DHT22;3089;48.202;11.510;2023-10-09T07:11:02;14.40;99.90
6118;DHT22;3089;48.202;11.510;2023-10-09T07:13:48;14.40;99.90
6118;DHT22;3089;48.202;11.510;2023-10-09T07:16:21;14.50;99.90
6118;DHT22;3089;48.202;11.510;2023-10-09T07:18:56;14.50;99.90
6118;DHT22;3089;48.202;11.510;2023-10-09T07:21:36;14.50;99.90
6118;DHT22;3089;48.202;11.510;2023-10-09T07:24:06;14.50;99.90
6118;DHT22;3089;48.202;11.510;2023-10-09T07:26:49;14.50;99.90
6118;DHT22;3089;48.202;11.510;2023-10-09T07:29:20;14.60;99.90
6118;DHT22;3089;48.202;11.510;2023-10-09T07:31:51;14.60;99.90
6118;DHT22;3089;48.202;11.510;2023-10-09T07:34:25;14.80;99.90
6118;DHT22;3089;48.202;11.510;2023-10-09T07:37:20;14.90;99.90
6118;DHT22;3089;48.202;11.510;2023-10-09T07:39:50;15.30;99.90
6118;DHT22;3089;48.202;11.510;2023-10-09T07:42:26;15.30;99.90
6118;DHT22;3089;48.202;11.510;2023-10-09T07:45:01;15.50;99.90
6118;DHT22;3089;48.202;11.510;2023-10-09T07:47:39;15.70;99.90
6118;DHT22;3089;48.202;11.510;2023-10-09T07:50:28;15.50;99.90
6118;DHT22;3089;48.202;11.510;2023-10-09T07:53:05;15.70;99.90
6118;DHT22;3089;48.202;11.510;2023-10-09T07:55:45;15.60;99.90
6118;DHT22;3089;48.202;11.510;2023-10-09T07:58:23;16.00;99.90
6118;DHT22;3089;48.202;11.510;2023-10-09T08:00:54;16.00;99.90
6118;DHT22;3089;48.202;11.510;2023-10-09T08:03:37;16.40;99.90
6118;DHT22;3089;48.202;11.510;2023-10-09T08:06:05;16.50;99.90
6118;DHT22;3089;48.202;11.510;2023-10-09T08:08:57;16.30;99.90
6118;DHT22;3089;48.202;11.510;2023-10-09T08:11:48;16.30;99.90
6118;DHT22;3089;48.202;11.510;2023-10-09T08:14:32;16.50;99.90
6118;DHT22;3089;48.202;11.510;2023-10-09T08:17:15;16.50;99.90
6118;DHT22;3089;48.202;11.510;2023-10-09T08:19:46;16.60;99.90
6118;DHT22;3089;48.202;11.510;2023-10-09T08:22:23;16.70;99.90
6118;DHT22;3089;48.202;11.510;2023-10-09T08:25:20;16.70;99.90
6118;DHT22;3089;48.202;11.510;2023-10-09T08:27:56;16.60;99.90
6118;DHT22;3089;48.202;11.510;2023-10-09T08:30:26;16.60;99.90
6118;DHT22;3089;48.202;11.510;2023-10-09T08:33:08;17.10;99.90
6118;DHT22;3089;48.202;11.510;2023-10-09T08:35:57;17.10;99.90
6118;DHT22;3089;48.202;11.510;2023-10-09T08:38:32;17.30;99.90
6118;DHT22;3089;48.202;11.510;2023-10-09T08:41:07;17.10;99.90
6118;DHT22;3089;48.202;11.510;2023-10-09T08:43:47;16.80;99.90
6118;DHT22;3089;48.202;11.510;2023-10-09T08:46:21;17.00;99.90
6118;DHT22;3089;48.202;11.510;2023-10-09T08:48:50;16.80;99.90
6118;DHT22;3089;48.202;11.510;2023-10-09T08:51:18;16.50;99.90
6118;DHT22;3089;48.202;11.510;2023-10-09T08:53:48;16.70;99.90
6118;DHT22;3089;48.202;11.510;2023-10-09T08:56:17;16.80;99.90
6118;DHT22;3089;48.202;11.510;2023-10-09T08:58:52;16.90;99.90
6118;DHT22;3089;48.202;11.510;2023-10-09T09:01:24;16.90;99.90
6118;DHT22;3089;48.202;11.510;2023-10-09T09:03:55;17.00;99.90
6118;DHT22;3089;48.202;11.510;2023-10-09T09:06:23;17.60;99.90
6118;DHT22;3089;48.202;11.510;2023-10-09T09:08:52;17.30;99.90
6118;DHT22;3089;48.202;11.510;2023-10-09T09:11:41;17.40;99.90
6118;DHT22;3089;48.202;11.510;2023-10-09T09:14:15;17.50;99.90
6118;DHT22;3089;48.202;11.510;2023-10-09T09:16:50;17.50;99.90
6118;DHT22;3089;48.202;11.510;2023-10-09T09:19:31;17.60;99.90
6118;DHT22;3089;48.202;11.510;2023-10-09T09:22:05;17.70;99.90
6118;DHT22;3089;48.202;11.510;2023-10-09T09:24:40;18.00;99.90
6118;DHT22;3089;48.202;11.510;2023-10-09T09:27:45;17.50;99.90
6118;DHT22;3089;48.202;11.510;2023-10-09T09:30:23;17.50;99.90
6118;DHT22;3089;48.202;11.510;2023-10-09T09:32:53;17.80;99.90
6118;DHT22;3089;48.202;11.510;2023-10-09T09:35:36;17.70;99.90
6118;DHT22;3089;48.202;11.510;2023-10-09T09:38:04;17.80;99.90
6118;DHT22;3089;48.202;11.510;2023-10-09T09:40:34;17.60;99.90
6118;DHT22;3089;48.202;11.510;2023-10-09T09:43:08;18.20;99.90
6118;DHT22;3089;48.202;11.510;2023-10-09T09:45:49;18.50;99.90
6118;DHT22;3089;48.202;11.510;2023-10-09T09:48:19;17.90;99.90
6118;DHT22;3089;48.202;11.510;2023-10-09T09:50:47;18.20;99.90
6118;DHT22;3089;48.202;11.510;2023-10-09T09:53:21;18.30;99.90
6118;DHT22;3089;48.202;11.510;2023-10-09T09:55:51;17.90;99.90
6118;DHT22;3089;48.202;11.510;2023-10-09T09:58:26;17.70;99.90
6118;DHT22;3089;48.202;11.510;2023-10-09T10:01:02;17.90;99.90
6118;DHT22;3089;48.202;11.510;2023-10-09T10:03:47;18.10;99.90
6118;DHT22;3089;48.202;11.510;2023-10-09T10:06:19;18.30;99.90
6118;DHT22;3089;48.202;11.510;2023-10-09T10:08:48;18.40;99.90
6118;DHT22;3089;48.202;11.510;2023-10-09T10:11:43;19.00;99.90
6118;DHT22;3089;48.202;11.510;2023-10-09T10:14:12;18.50;99.90
6118;DHT22;3089;48.202;11.510;2023-10-09T10:17:05;18.60;99.90
6118;DHT22;3089;48.202;11.510;2023-10-09T10:20:06;19.00;99.90
6118;DHT22;3089;48.202;11.510;2023-10-09T10:23:14;18.80;99.90
6118;DHT22;3089;48.202;11.510;2023-10-09T10:25:46;18.80;99.90
6118;DHT22;3089;48.202;11.510;2023-10-09T10:28:18;19.10;99.90
6118;DHT22;3089;48.202;11.510;2023-10-09T10:30:56;19.10;99.90
6118;DHT22;3089;48.202;11.510;2023-10-09T10:33:27;19.00;99.90
6118;DHT22;3089;48.202;11.510;2023-10-09T10:36:21;18.70;99.90
6118;DHT22;3089;48.202;11.510;2023-10-09T10:38:59;19.00;99.90
6118;DHT22;3089;48.202;11.510;2023-10-09T10:41:34;19.20;99.90
6118;DHT22;3089;48.202;11.510;2023-10-09T10:44:06;19.50;99.90
6118;DHT22;3089;48.202;11.510;2023-10-09T10:46:48;19.60;99.90
6118;DHT22;3089;48.202;11.510;2023-10-09T10:49:20;19.30;99.90
6118;DHT22;3089;48.202;11.510;2023-10-09T10:51:51;19.20;99.90
6118;DHT22;3089;48.202;11.510;2023-10-09T10:54:28;19.50;99.90
6118;DHT22;3089;48.202;11.510;2023-10-09T10:57:18;19.50;99.90
6118;DHT22;3089;48.202;11.510;2023-10-09T11:00:00;19.60;99.90
6118;DHT22;3089;48.202;11.510;2023-10-09T11:02:43;19.50;99.90
6118;DHT22;3089;48.202;11.510;2023-10-09T11:05:11;19.40;99.90
6118;DHT22;3089;48.202;11.510;2023-10-09T11:07:57;19.90;99.90
6118;DHT22;3089;48.202;11.510;2023-10-09T11:10:28;19.80;99.90
6118;DHT22;3089;48.202;11.510;2023-10-09T11:12:59;20.00;99.90
6118;DHT22;3089;48.202;11.510;2023-10-09T11:15:44;20.10;99.90
6118;DHT22;3089;48.202;11.510;2023-10-09T11:18:15;20.10;99.90
6118;DHT22;3089;48.202;11.510;2023-10-09T11:20:51;20.40;99.90
6118;DHT22;3089;48.202;11.510;2023-10-09T11:23:46;20.60;99.90
6118;DHT22;3089;48.202;11.510;2023-10-09T11:26:49;20.90;99.90
6118;DHT22;3089;48.202;11.510;2023-10-09T11:29:22;20.50;99.90
6118;DHT22;3089;48.202;11.510;2023-10-09T11:32:18;20.60;99.90
6118;DHT22;3089;48.202;11.510;2023-10-09T11:34:46;20.40;99.90
6118;DHT22;3089;48.202;11.510;2023-10-09T11:37:22;20.10;99.90
6118;DHT22;3089;48.202;11.510;2023-10-09T11:40:26;20.60;99.90
6118;DHT22;3089;48.202;11.510;2023-10-09T11:43:00;20.60;99.90
6118;DHT22;3089;48.202;11.510;2023-10-09T11:45:29;20.60;99.90
6118;DHT22;3089;48.202;11.510;2023-10-09T11:48:16;20.60;99.90
6118;DHT22;3089;48.202;11.510;2023-10-09T11:50:52;20.70;99.90
6118;DHT22;3089;48.202;11.510;2023-10-09T11:53:23;20.40;99.90
6118;DHT22;3089;48.202;11.510;2023-10-09T11:56:04;19.90;99.90
6118;DHT22;3089;48.202;11.510;2023-10-09T11:58:36;20.20;99.90
6118;DHT22;3089;48.202;11.510;2023-10-09T12:01:12;20.50;99.90
6118;DHT22;3089;48.202;11.510;2023-10-09T12:03:44;20.50;99.90
6118;DHT22;3089;48.202;11.510;2023-10-09T12:06:17;20.20;99.90
6118;DHT22;3089;48.202;11.510;2023-10-09T12:08:49;20.50;99.90
6118;DHT22;3089;48.202;11.510;2023-10-09T12:11:18;20.70;99.90
6118;DHT22;3089;48.202;11.510;2023-10-09T12:13:56;20.80;99.90
6118;DHT22;3089;48.202;11.510;2023-10-09T12:16:37;20.50;99.90
6118;DHT22;3089;48.202;11.510;2023-10-09T12:19:11;20.30;99.90
6118;DHT22;3089;48.202;11.510;2023-10-09T12:21:40;20.20;99.90
6118;DHT22;3089;48.202;11.510;2023-10-09T12:24:10;20.20;99.90
6118;DHT22;3089;48.202;11.510;2023-10-09T12:26:40;20.50;99.90
6118;DHT22;3089;48.202;11.510;2023-10-09T12:29:10;20.60;99.90
6118;DHT22;3089;48.202;11.510;2023-10-09T12:31:39;20.40;99.90
6118;DHT22;3089;48.202;11.510;2023-10-09T12:34:12;20.40;99.90
6118;DHT22;3089;48.202;11.510;2023-10-09T12:36:45;20.40;99.90
6118;DHT22;3089;48.202;11.510;2023-10-09T12:39:14;20.20;99.90
6118;DHT22;3089;48.202;11.510;2023-10-09T12:41:47;20.10;99.90
6118;DHT22;3089;48.202;11.510;2023-10-09T12:44:15;20.10;99.90
6118;DHT22;3089;48.202;11.510;2023-10-09T12:46:45;20.00;99.90
6118;DHT22;3089;48.202;11.510;2023-10-09T12:49:20;20.10;99.90
6118;DHT22;3089;48.202;11.510;2023-10-09T12:51:54;20.00;99.90
6118;DHT22;3089;48.202;11.510;2023-10-09T12:54:24;19.80;99.90
6118;DHT22;3089;48.202;11.510;2023-10-09T12:56:56;19.80;99.90
6118;DHT22;3089;48.202;11.510;2023-10-09T12:59:27;19.90;99.90
6118;DHT22;3089;48.202;11.510;2023-10-09T13:01:56;19.90;99.90
6118;DHT22;3089;48.202;11.510;2023-10-09T13:04:25;19.90;99.90
6118;DHT22;3089;48.202;11.510;2023-10-09T13:06:59;19.60;99.90
6118;DHT22;3089;48.202;11.510;2023-10-09T13:09:34;19.90;99.90
6118;DHT22;3089;48.202;11.510;2023-10-09T13:12:11;19.90;99.90
6118;DHT22;3089;48.202;11.510;2023-10-09T13:14:46;19.90;99.90
6118;DHT22;3089;48.202;11.510;2023-10-09T13:17:16;20.00;99.90
6118;DHT22;3089;48.202;11.510;2023-10-09T13:19:47;19.90;99.90
6118;DHT22;3089;48.202;11.510;2023-10-09T13:22:15;19.80;99.90
6118;DHT22;3089;48.202;11.510;2023-10-09T13:24:43;19.80;99.90
6118;DHT22;3089;48.202;11.510;2023-10-09T13:27:16;19.70;99.90
6118;DHT22;3089;48.202;11.510;2023-10-09T13:29:48;19.80;99.90
6118;DHT22;3089;48.202;11.510;2023-10-09T13:32:19;19.60;99.90
6118;DHT22;3089;48.202;11.510;2023-10-09T13:34:47;19.60;99.90
6118;DHT22;3089;48.202;11.510;2023-10-09T13:37:16;19.60;99.90
6118;DHT22;3089;48.202;11.510;2023-10-09T13:39:49;19.60;99.90
6118;DHT22;3089;48.202;11.510;2023-10-09T13:42:21;19.50;99.90
6118;DHT22;3089;48.202;11.510;2023-10-09T13:44:53;19.50;99.90
6118;DHT22;3089;48.202;11.510;2023-10-09T13:47:22;19.50;99.90
6118;DHT22;3089;48.202;11.510;2023-10-09T13:49:56;19.50;99.90
6118;DHT22;3089;48.202;11.510;2023-10-09T13:52:24;19.30;99.90
6118;DHT22;3089;48.202;11.510;2023-10-09T13:54:53;19.20;99.90
6118;DHT22;3089;48.202;11.510;2023-10-09T13:57:23;19.10;99.90
6118;DHT22;3089;48.202;11.510;2023-10-09T13:59:58;19.10;99.90
6118;DHT22;3089;48.202;11.510;2023-10-09T14:02:27;19.00;99.90
6118;DHT22;3089;48.202;11.510;2023-10-09T14:04:56;19.00;99.90
6118;DHT22;3089;48.202;11.510;2023-10-09T14:07:28;18.90;99.90
6118;DHT22;3089;48.202;11.510;2023-10-09T14:09:56;18.90;99.90
6118;DHT22;3089;48.202;11.510;2023-10-09T14:12:36;18.90;99.90
6118;DHT22;3089;48.202;11.510;2023-10-09T14:15:08;18.90;99.90
6118;DHT22;3089;48.202;11.510;2023-10-09T14:17:38;18.90;99.90
6118;DHT22;3089;48.202;11.510;2023-10-09T14:20:10;19.00;99.90
6118;DHT22;3089;48.202;11.510;2023-10-09T14:23:05;18.90;99.90
6118;DHT22;3089;48.202;11.510;2023-10-09T14:25:35;18.90;99.90
6118;DHT22;3089;48.202;11.510;2023-10-09T14:28:05;18.90;99.90
6118;DHT22;3089;48.202;11.510;2023-10-09T14:30:35;19.00;99.90
6118;DHT22;3089;48.202;11.510;2023-10-09T14:33:09;19.00;99.90
6118;DHT22;3089;48.202;11.510;2023-10-09T14:35:40;19.00;99.90
6118;DHT22;3089;48.202;11.510;2023-10-09T14:38:10;19.00;99.90
6118;DHT22;3089;48.202;11.510;2023-10-09T14:40:42;19.00;99.90
6118;DHT22;3089;48.202;11.510;2023-10-09T14:43:11;19.00;99.90
6118;DHT22;3089;48.202;11.510;2023-10-09T14:45:47;19.00;99.90
6118;DHT22;3089;48.202;11.510;2023-10-09T14:48:16;18.90;99.90
6118;DHT22;3089;48.202;11.510;2023-10-09T14:50:48;18.90;99.90
6118;DHT22;3089;48.202;11.510;2023-10-09T14:53:21;18.80;99.90
6118;DHT22;3089;48.202;11.510;2023-10-09T14:55:54;18.70;99.90
6118;DHT22;3089;48.202;11.510;2023-10-09T14:58:23;18.80;99.90
6118;DHT22;3089;48.202;11.510;2023-10-09T15:00:52;18.80;99.90
6118;DHT22;3089;48.202;11.510;2023-10-09T15:03:21;18.80;99.90
6118;DHT22;3089;48.202;11.510;2023-10-09T15:05:49;18.70;99.90
6118;DHT22;3089;48.202;11.510;2023-10-09T15:08:18;18.70;99.90
6118;DHT22;3089;48.202;11.510;2023-10-09T15:10:49;18.80;99.90
6118;DHT22;3089;48.202;11.510;2023-10-09T15:13:18;18.80;99.90
6118;DHT22;3089;48.202;11.510;2023-10-09T15:15:47;18.70;99.90
6118;DHT22;3089;48.202;11.510;2023-10-09T15:18:18;18.70;99.90
6118;DHT22;3089;48.202;11.510;2023-10-09T15:20:49;18.60;99.90
6118;DHT22;3089;48.202;11.510;2023-10-09T15:23:18;18.70;99.90
6118;DHT22;3089;48.202;11.510;2023-10-09T15:25:50;18.70;99.90
6118;DHT22;3089;48.202;11.510;2023-10-09T15:28:21;18.70;99.90
6118;DHT22;3089;48.202;11.510;2023-10-09T15:30:50;18.70;99.90
6118;DHT22;3089;48.202;11.510;2023-10-09T15:33:19;18.70;99.90
6118;DHT22;3089;48.202;11.510;2023-10-09T15:35:49;18.70;99.90
6118;DHT22;3089;48.202;11.510;2023-10-09T15:38:17;18.70;99.90
6118;DHT22;3089;48.202;11.510;2023-10-09T15:40:47;18.60;99.90
6118;DHT22;3089;48.202;11.510;2023-10-09T15:43:16;18.60;99.90
6118;DHT22;3089;48.202;11.510;2023-10-09T15:45:45;18.60;99.90
6118;DHT22;3089;48.202;11.510;2023-10-09T15:48:15;18.60;99.90
6118;DHT22;3089;48.202;11.510;2023-10-09T15:50:51;18.60;99.90
6118;DHT22;3089;48.202;11.510;2023-10-09T15:53:19;18.60;99.90
6118;DHT22;3089;48.202;11.510;2023-10-09T15:55:48;18.60;99.90
6118;DHT22;3089;48.202;11.510;2023-10-09T15:58:20;18.50;99.90
6118;DHT22;3089;48.202;11.510;2023-10-09T16:00:48;18.60;99.90
6118;DHT22;3089;48.202;11.510;2023-10-09T16:03:17;18.50;99.90
6118;DHT22;3089;48.202;11.510;2023-10-09T16:05:46;18.50;99.90
6118;DHT22;3089;48.202;11.510;2023-10-09T16:08:15;18.40;99.90
6118;DHT22;3089;48.202;11.510;2023-10-09T16:10:46;18.50;99.90
6118;DHT22;3089;48.202;11.510;2023-10-09T16:13:15;18.40;99.90
6118;DHT22;3089;48.202;11.510;2023-10-09T16:15:45;18.40;99.90
6118;DHT22;3089;48.202;11.510;2023-10-09T16:18:15;18.40;99.90
6118;DHT22;3089;48.202;11.510;2023-10-09T16:20:43;18.40;99.90
6118;DHT22;3089;48.202;11.510;2023-10-09T16:23:13;18.40;99.90
6118;DHT22;3089;48.202;11.510;2023-10-09T16:25:41;18.40;99.90
6118;DHT22;3089;48.202;11.510;2023-10-09T16:28:10;18.40;99.90
6118;DHT22;3089;48.202;11.510;2023-10-09T16:30:38;18.40;99.90
6118;DHT22;3089;48.202;11.510;2023-10-09T16:33:09;18.40;99.90
6118;DHT22;3089;48.202;11.510;2023-10-09T16:35:38;18.40;99.90